sensor_id;sensor_type;location;lat;lon;timestamp;P1;durP1;ratioP1;P2;durP2;ratioP2
10191;SDS011;17580;50.850;4.504;2022-11-15T00:01:35;13.73;;;12.30;;
10191;SDS011;17580;50.850;4.504;2022-11-15T00:04:03;16.17;;;11.10;;
10191;SDS011;17580;50.850;4.504;2022-11-15T00:06:30;12.30;;;10.77;;
10191;SDS011;17580;50.850;4.504;2022-11-15T00:08:58;12.33;;;11.03;;
10191;SDS011;17580;50.850;4.504;2022-11-15T00:11:25;14.00;;;11.23;;
10191;SDS011;17580;50.850;4.504;2022-11-15T00:13:55;12.90;;;10.07;;
10191;SDS011;17580;50.850;4.504;2022-11-15T00:16:23;13.50;;;12.10;;
10191;SDS011;17580;50.850;4.504;2022-11-15T00:18:50;10.60;;;9.50;;
10191;SDS011;17580;50.850;4.504;2022-11-15T00:21:18;10.57;;;9.53;;
10191;SDS011;17580;50.850;4.504;2022-11-15T00:23:44;11.97;;;10.73;;
10191;SDS011;17580;50.850;4.504;2022-11-15T00:26:12;15.03;;;10.97;;
10191;SDS011;17580;50.850;4.504;2022-11-15T00:28:40;12.00;;;10.80;;
10191;SDS011;17580;50.850;4.504;2022-11-15T00:31:11;19.63;;;9.63;;
10191;SDS011;17580;50.850;4.504;2022-11-15T00:33:39;13.97;;;12.13;;
10191;SDS011;17580;50.850;4.504;2022-11-15T00:36:08;11.80;;;10.60;;
10191;SDS011;17580;50.850;4.504;2022-11-15T00:38:37;14.33;;;12.67;;
10191;SDS011;17580;50.850;4.504;2022-11-15T00:41:06;12.93;;;10.70;;
10191;SDS011;17580;50.850;4.504;2022-11-15T00:43:33;16.60;;;11.87;;
10191;SDS011;17580;50.850;4.504;2022-11-15T00:46:00;15.20;;;12.50;;
10191;SDS011;17580;50.850;4.504;2022-11-15T00:48:29;16.70;;;11.87;;
10191;SDS011;17580;50.850;4.504;2022-11-15T00:50:56;15.77;;;12.17;;
10191;SDS011;17580;50.850;4.504;2022-11-15T00:53:24;21.83;;;15.37;;
10191;SDS011;17580;50.850;4.504;2022-11-15T00:55:51;17.10;;;13.23;;
10191;SDS011;17580;50.850;4.504;2022-11-15T00:58:17;20.30;;;15.23;;
10191;SDS011;17580;50.850;4.504;2022-11-15T01:00:45;17.30;;;14.57;;
10191;SDS011;17580;50.850;4.504;2022-11-15T01:03:12;15.97;;;14.00;;
10191;SDS011;17580;50.850;4.504;2022-11-15T01:05:40;20.30;;;14.07;;
10191;SDS011;17580;50.850;4.504;2022-11-15T01:08:10;19.83;;;15.23;;
10191;SDS011;17580;50.850;4.504;2022-11-15T01:10:38;16.13;;;13.07;;
10191;SDS011;17580;50.850;4.504;2022-11-15T01:13:06;18.37;;;14.30;;
10191;SDS011;17580;50.850;4.504;2022-11-15T01:15:33;17.57;;;14.23;;
10191;SDS011;17580;50.850;4.504;2022-11-15T01:18:00;19.63;;;16.00;;
10191;SDS011;17580;50.850;4.504;2022-11-15T01:20:26;23.07;;;15.23;;
10191;SDS011;17580;50.850;4.504;2022-11-15T01:22:55;19.43;;;15.23;;
10191;SDS011;17580;50.850;4.504;2022-11-15T01:25:22;21.47;;;15.70;;
10191;SDS011;17580;50.850;4.504;2022-11-15T01:27:49;22.43;;;15.27;;
10191;SDS011;17580;50.850;4.504;2022-11-15T01:30:16;25.40;;;17.97;;
10191;SDS011;17580;50.850;4.504;2022-11-15T01:32:42;26.47;;;18.63;;
10191;SDS011;17580;50.850;4.504;2022-11-15T01:35:09;24.20;;;17.93;;
10191;SDS011;17580;50.850;4.504;2022-11-15T01:37:36;23.33;;;17.80;;
10191;SDS011;17580;50.850;4.504;2022-11-15T01:40:05;24.07;;;16.87;;
10191;SDS011;17580;50.850;4.504;2022-11-15T01:42:33;24.20;;;17.43;;
10191;SDS011;17580;50.850;4.504;2022-11-15T01:44:59;14.90;;;13.17;;
10191;SDS011;17580;50.850;4.504;2022-11-15T01:47:27;18.50;;;15.03;;
10191;SDS011;17580;50.850;4.504;2022-11-15T01:49:57;17.00;;;14.40;;
10191;SDS011;17580;50.850;4.504;2022-11-15T01:52:27;16.30;;;13.77;;
10191;SDS011;17580;50.850;4.504;2022-11-15T01:54:58;17.23;;;13.70;;
10191;SDS011;17580;50.850;4.504;2022-11-15T01:57:30;17.17;;;12.70;;
10191;SDS011;17580;50.850;4.504;2022-11-15T01:59:57;16.93;;;12.27;;
10191;SDS011;17580;50.850;4.504;2022-11-15T02:02:25;17.43;;;11.93;;
10191;SDS011;17580;50.850;4.504;2022-11-15T02:04:53;14.60;;;11.60;;
10191;SDS011;17580;50.850;4.504;2022-11-15T02:07:20;15.10;;;13.47;;
10191;SDS011;17580;50.850;4.504;2022-11-15T02:09:48;17.37;;;11.97;;
10191;SDS011;17580;50.850;4.504;2022-11-15T02:12:16;11.20;;;10.10;;
10191;SDS011;17580;50.850;4.504;2022-11-15T02:14:48;10.90;;;9.80;;
10191;SDS011;17580;50.850;4.504;2022-11-15T02:17:23;12.73;;;10.10;;
10191;SDS011;17580;50.850;4.504;2022-11-15T02:20:10;11.90;;;9.73;;
10191;SDS011;17580;50.850;4.504;2022-11-15T02:22:58;10.87;;;8.93;;
10191;SDS011;17580;50.850;4.504;2022-11-15T02:25:40;10.20;;;9.17;;
10191;SDS011;17580;50.850;4.504;2022-11-15T02:28:26;12.83;;;9.67;;
10191;SDS011;17580;50.850;4.504;2022-11-15T02:31:07;9.93;;;7.83;;
10191;SDS011;17580;50.850;4.504;2022-11-15T02:33:41;9.93;;;8.63;;
10191;SDS011;17580;50.850;4.504;2022-11-15T02:36:22;11.07;;;9.27;;
10191;SDS011;17580;50.850;4.504;2022-11-15T02:39:03;9.40;;;8.40;;
10191;SDS011;17580;50.850;4.504;2022-11-15T02:41:38;9.97;;;9.07;;
10191;SDS011;17580;50.850;4.504;2022-11-15T02:44:11;11.27;;;8.03;;
10191;SDS011;17580;50.850;4.504;2022-11-15T02:46:44;7.67;;;6.63;;
10191;SDS011;17580;50.850;4.504;2022-11-15T02:49:32;9.57;;;8.67;;
10191;SDS011;17580;50.850;4.504;2022-11-15T02:52:00;8.33;;;7.10;;
10191;SDS011;17580;50.850;4.504;2022-11-15T02:54:28;8.33;;;7.53;;
10191;SDS011;17580;50.850;4.504;2022-11-15T02:56:58;9.20;;;7.60;;
10191;SDS011;17580;50.850;4.504;2022-11-15T03:02:42;9.10;;;7.53;;
10191;SDS011;17580;50.850;4.504;2022-11-15T03:05:18;12.50;;;8.27;;
10191;SDS011;17580;50.850;4.504;2022-11-15T03:07:52;11.03;;;9.37;;
10191;SDS011;17580;50.850;4.504;2022-11-15T03:10:24;13.40;;;9.33;;
10191;SDS011;17580;50.850;4.504;2022-11-15T03:12:59;11.23;;;9.23;;
10191;SDS011;17580;50.850;4.504;2022-11-15T03:15:34;9.03;;;8.07;;
10191;SDS011;17580;50.850;4.504;2022-11-15T03:18:10;9.47;;;8.43;;
10191;SDS011;17580;50.850;4.504;2022-11-15T03:20:45;9.20;;;8.00;;
10191;SDS011;17580;50.850;4.504;2022-11-15T03:23:13;8.80;;;7.50;;
10191;SDS011;17580;50.850;4.504;2022-11-15T03:25:40;7.47;;;6.73;;
10191;SDS011;17580;50.850;4.504;2022-11-15T03:28:11;7.80;;;7.00;;
10191;SDS011;17580;50.850;4.504;2022-11-15T03:30:41;9.07;;;7.37;;
10191;SDS011;17580;50.850;4.504;2022-11-15T03:33:11;8.90;;;7.77;;
10191;SDS011;17580;50.850;4.504;2022-11-15T03:35:39;8.37;;;7.10;;
10191;SDS011;17580;50.850;4.504;2022-11-15T03:38:17;11.40;;;9.23;;
10191;SDS011;17580;50.850;4.504;2022-11-15T03:40:49;12.53;;;7.57;;
10191;SDS011;17580;50.850;4.504;2022-11-15T03:43:22;10.80;;;6.77;;
10191;SDS011;17580;50.850;4.504;2022-11-15T03:45:55;10.37;;;6.27;;
10191;SDS011;17580;50.850;4.504;2022-11-15T03:48:29;7.23;;;6.10;;
10191;SDS011;17580;50.850;4.504;2022-11-15T03:50:59;7.00;;;5.87;;
10191;SDS011;17580;50.850;4.504;2022-11-15T03:53:27;10.27;;;6.20;;
10191;SDS011;17580;50.850;4.504;2022-11-15T03:55:55;8.43;;;5.67;;
10191;SDS011;17580;50.850;4.504;2022-11-15T03:58:22;7.77;;;5.43;;
10191;SDS011;17580;50.850;4.504;2022-11-15T04:00:49;6.80;;;5.40;;
10191;SDS011;17580;50.850;4.504;2022-11-15T04:03:16;9.93;;;5.77;;
10191;SDS011;17580;50.850;4.504;2022-11-15T04:05:44;5.27;;;4.70;;
10191;SDS011;17580;50.850;4.504;2022-11-15T04:08:11;5.27;;;4.73;;
10191;SDS011;17580;50.850;4.504;2022-11-15T04:10:38;5.63;;;4.40;;
10191;SDS011;17580;50.850;4.504;2022-11-15T04:13:05;5.10;;;4.60;;
10191;SDS011;17580;50.850;4.504;2022-11-15T04:15:32;6.33;;;4.30;;
10191;SDS011;17580;50.850;4.504;2022-11-15T04:17:59;5.77;;;4.43;;
10191;SDS011;17580;50.850;4.504;2022-11-15T04:20:27;7.93;;;4.97;;
10191;SDS011;17580;50.850;4.504;2022-11-15T04:23:15;6.30;;;4.47;;
10191;SDS011;17580;50.850;4.504;2022-11-15T04:26:01;6.30;;;5.70;;
10191;SDS011;17580;50.850;4.504;2022-11-15T04:28:30;6.30;;;5.67;;
10191;SDS011;17580;50.850;4.504;2022-11-15T04:30:57;9.33;;;6.27;;
10191;SDS011;17580;50.850;4.504;2022-11-15T04:33:25;8.90;;;5.73;;
10191;SDS011;17580;50.850;4.504;2022-11-15T04:35:52;7.50;;;5.50;;
10191;SDS011;17580;50.850;4.504;2022-11-15T04:38:37;6.53;;;5.93;;
10191;SDS011;17580;50.850;4.504;2022-11-15T04:41:04;6.87;;;5.60;;
10191;SDS011;17580;50.850;4.504;2022-11-15T04:43:31;6.87;;;6.20;;
10191;SDS011;17580;50.850;4.504;2022-11-15T04:45:58;10.77;;;6.50;;
10191;SDS011;17580;50.850;4.504;2022-11-15T04:48:25;7.47;;;5.37;;
10191;SDS011;17580;50.850;4.504;2022-11-15T04:50:52;8.07;;;5.67;;
10191;SDS011;17580;50.850;4.504;2022-11-15T04:53:19;7.37;;;4.87;;
10191;SDS011;17580;50.850;4.504;2022-11-15T04:55:47;5.33;;;3.93;;
10191;SDS011;17580;50.850;4.504;2022-11-15T04:58:14;9.57;;;5.53;;
10191;SDS011;17580;50.850;4.504;2022-11-15T05:00:41;4.33;;;3.80;;
10191;SDS011;17580;50.850;4.504;2022-11-15T05:03:08;6.83;;;3.93;;
10191;SDS011;17580;50.850;4.504;2022-11-15T05:05:53;7.07;;;4.30;;
10191;SDS011;17580;50.850;4.504;2022-11-15T05:08:20;4.30;;;3.90;;
10191;SDS011;17580;50.850;4.504;2022-11-15T05:10:49;4.83;;;3.77;;
10191;SDS011;17580;50.850;4.504;2022-11-15T05:13:15;5.53;;;3.67;;
10191;SDS011;17580;50.850;4.504;2022-11-15T05:15:42;3.57;;;3.27;;
10191;SDS011;17580;50.850;4.504;2022-11-15T05:18:10;6.60;;;3.70;;
10191;SDS011;17580;50.850;4.504;2022-11-15T05:20:37;4.30;;;3.03;;
10191;SDS011;17580;50.850;4.504;2022-11-15T05:23:04;7.13;;;3.13;;
10191;SDS011;17580;50.850;4.504;2022-11-15T05:25:30;7.13;;;3.20;;
10191;SDS011;17580;50.850;4.504;2022-11-15T05:27:59;6.17;;;3.87;;
10191;SDS011;17580;50.850;4.504;2022-11-15T05:30:26;3.43;;;2.80;;
10191;SDS011;17580;50.850;4.504;2022-11-15T05:32:53;3.27;;;2.97;;
10191;SDS011;17580;50.850;4.504;2022-11-15T05:35:21;3.10;;;2.70;;
10191;SDS011;17580;50.850;4.504;2022-11-15T05:37:55;2.70;;;2.30;;
10191;SDS011;17580;50.850;4.504;2022-11-15T05:40:23;3.70;;;2.90;;
10191;SDS011;17580;50.850;4.504;2022-11-15T05:42:50;4.67;;;3.20;;
10191;SDS011;17580;50.850;4.504;2022-11-15T05:45:18;4.30;;;2.87;;
10191;SDS011;17580;50.850;4.504;2022-11-15T05:47:46;4.30;;;2.87;;
10191;SDS011;17580;50.850;4.504;2022-11-15T05:50:16;3.77;;;3.23;;
10191;SDS011;17580;50.850;4.504;2022-11-15T05:52:44;3.90;;;2.87;;
10191;SDS011;17580;50.850;4.504;2022-11-15T05:55:13;5.10;;;2.87;;
10191;SDS011;17580;50.850;4.504;2022-11-15T05:57:41;2.63;;;2.33;;
10191;SDS011;17580;50.850;4.504;2022-11-15T06:00:08;4.80;;;3.00;;
10191;SDS011;17580;50.850;4.504;2022-11-15T06:02:38;4.40;;;2.90;;
10191;SDS011;17580;50.850;4.504;2022-11-15T06:05:05;3.53;;;3.20;;
10191;SDS011;17580;50.850;4.504;2022-11-15T06:07:32;5.10;;;3.28;;
10191;SDS011;17580;50.850;4.504;2022-11-15T06:09:59;3.10;;;2.73;;
10191;SDS011;17580;50.850;4.504;2022-11-15T06:12:26;2.73;;;2.50;;
10191;SDS011;17580;50.850;4.504;2022-11-15T06:14:53;4.73;;;2.87;;
10191;SDS011;17580;50.850;4.504;2022-11-15T06:17:20;3.83;;;2.97;;
10191;SDS011;17580;50.850;4.504;2022-11-15T06:19:48;5.87;;;3.53;;
10191;SDS011;17580;50.850;4.504;2022-11-15T06:22:15;4.27;;;3.40;;
10191;SDS011;17580;50.850;4.504;2022-11-15T06:24:42;6.90;;;3.73;;
10191;SDS011;17580;50.850;4.504;2022-11-15T06:27:10;3.90;;;3.60;;
10191;SDS011;17580;50.850;4.504;2022-11-15T06:29:37;3.93;;;3.30;;
10191;SDS011;17580;50.850;4.504;2022-11-15T06:32:04;3.27;;;2.93;;
10191;SDS011;17580;50.850;4.504;2022-11-15T06:34:31;3.13;;;2.93;;
10191;SDS011;17580;50.850;4.504;2022-11-15T06:36:59;5.83;;;3.47;;
10191;SDS011;17580;50.850;4.504;2022-11-15T06:39:26;5.17;;;2.90;;
10191;SDS011;17580;50.850;4.504;2022-11-15T06:41:53;6.00;;;3.10;;
10191;SDS011;17580;50.850;4.504;2022-11-15T06:44:20;5.33;;;3.03;;
10191;SDS011;17580;50.850;4.504;2022-11-15T06:46:47;6.30;;;3.60;;
10191;SDS011;17580;50.850;4.504;2022-11-15T06:49:14;6.60;;;3.00;;
10191;SDS011;17580;50.850;4.504;2022-11-15T06:51:41;3.23;;;2.53;;
10191;SDS011;17580;50.850;4.504;2022-11-15T06:54:10;4.67;;;3.27;;
10191;SDS011;17580;50.850;4.504;2022-11-15T06:56:37;6.47;;;3.30;;
10191;SDS011;17580;50.850;4.504;2022-11-15T06:59:04;5.93;;;3.03;;
10191;SDS011;17580;50.850;4.504;2022-11-15T07:01:30;3.00;;;2.80;;
10191;SDS011;17580;50.850;4.504;2022-11-15T07:03:57;7.20;;;3.70;;
10191;SDS011;17580;50.850;4.504;2022-11-15T07:06:24;3.67;;;3.20;;
10191;SDS011;17580;50.850;4.504;2022-11-15T07:08:51;3.10;;;2.90;;
10191;SDS011;17580;50.850;4.504;2022-11-15T07:11:20;7.23;;;3.57;;
10191;SDS011;17580;50.850;4.504;2022-11-15T07:13:47;5.83;;;3.73;;
10191;SDS011;17580;50.850;4.504;2022-11-15T07:16:14;6.97;;;3.57;;
10191;SDS011;17580;50.850;4.504;2022-11-15T07:18:41;3.43;;;3.17;;
10191;SDS011;17580;50.850;4.504;2022-11-15T07:21:08;6.33;;;3.60;;
10191;SDS011;17580;50.850;4.504;2022-11-15T07:23:37;3.63;;;3.33;;
10191;SDS011;17580;50.850;4.504;2022-11-15T07:26:05;3.93;;;3.63;;
10191;SDS011;17580;50.850;4.504;2022-11-15T07:28:33;6.63;;;4.23;;
10191;SDS011;17580;50.850;4.504;2022-11-15T07:31:01;5.13;;;3.93;;
10191;SDS011;17580;50.850;4.504;2022-11-15T07:33:29;5.37;;;3.63;;
10191;SDS011;17580;50.850;4.504;2022-11-15T07:35:58;4.57;;;3.50;;
10191;SDS011;17580;50.850;4.504;2022-11-15T07:38:26;5.50;;;3.60;;
10191;SDS011;17580;50.850;4.504;2022-11-15T07:40:55;6.03;;;3.90;;
10191;SDS011;17580;50.850;4.504;2022-11-15T07:43:23;3.87;;;3.47;;
10191;SDS011;17580;50.850;4.504;2022-11-15T07:45:54;7.07;;;3.70;;
10191;SDS011;17580;50.850;4.504;2022-11-15T07:48:21;4.47;;;3.83;;
10191;SDS011;17580;50.850;4.504;2022-11-15T07:50:48;4.97;;;3.60;;
10191;SDS011;17580;50.850;4.504;2022-11-15T07:53:16;3.70;;;3.40;;
10191;SDS011;17580;50.850;4.504;2022-11-15T07:55:43;4.77;;;2.83;;
10191;SDS011;17580;50.850;4.504;2022-11-15T07:58:10;3.87;;;3.07;;
10191;SDS011;17580;50.850;4.504;2022-11-15T08:00:38;3.83;;;2.93;;
10191;SDS011;17580;50.850;4.504;2022-11-15T08:03:07;4.27;;;2.80;;
10191;SDS011;17580;50.850;4.504;2022-11-15T08:05:35;3.43;;;3.17;;
10191;SDS011;17580;50.850;4.504;2022-11-15T08:08:03;3.17;;;2.57;;
10191;SDS011;17580;50.850;4.504;2022-11-15T08:10:30;5.57;;;3.00;;
10191;SDS011;17580;50.850;4.504;2022-11-15T08:12:58;2.73;;;2.53;;
10191;SDS011;17580;50.850;4.504;2022-11-15T08:15:25;3.37;;;2.30;;
10191;SDS011;17580;50.850;4.504;2022-11-15T08:17:53;4.90;;;2.20;;
10191;SDS011;17580;50.850;4.504;2022-11-15T08:20:22;5.13;;;2.60;;
10191;SDS011;17580;50.850;4.504;2022-11-15T08:22:50;3.50;;;1.90;;
10191;SDS011;17580;50.850;4.504;2022-11-15T08:25:18;5.00;;;2.60;;
10191;SDS011;17580;50.850;4.504;2022-11-15T08:27:45;2.40;;;2.20;;
10191;SDS011;17580;50.850;4.504;2022-11-15T08:30:12;3.33;;;2.27;;
10191;SDS011;17580;50.850;4.504;2022-11-15T08:32:41;3.37;;;1.73;;
10191;SDS011;17580;50.850;4.504;2022-11-15T08:35:08;3.73;;;2.43;;
10191;SDS011;17580;50.850;4.504;2022-11-15T08:37:36;2.07;;;1.90;;
10191;SDS011;17580;50.850;4.504;2022-11-15T08:40:04;1.80;;;1.70;;
10191;SDS011;17580;50.850;4.504;2022-11-15T08:42:32;2.07;;;1.67;;
10191;SDS011;17580;50.850;4.504;2022-11-15T08:44:59;2.47;;;1.77;;
10191;SDS011;17580;50.850;4.504;2022-11-15T08:47:26;1.50;;;1.40;;
10191;SDS011;17580;50.850;4.504;2022-11-15T08:49:52;1.40;;;1.40;;
10191;SDS011;17580;50.850;4.504;2022-11-15T08:52:19;2.70;;;1.80;;
10191;SDS011;17580;50.850;4.504;2022-11-15T08:54:48;1.70;;;1.60;;
10191;SDS011;17580;50.850;4.504;2022-11-15T08:57:15;1.83;;;1.40;;
10191;SDS011;17580;50.850;4.504;2022-11-15T08:59:42;3.90;;;2.13;;
10191;SDS011;17580;50.850;4.504;2022-11-15T09:02:10;2.43;;;1.40;;
10191;SDS011;17580;50.850;4.504;2022-11-15T09:04:39;1.80;;;1.70;;
10191;SDS011;17580;50.850;4.504;2022-11-15T09:07:06;1.97;;;1.30;;
10191;SDS011;17580;50.850;4.504;2022-11-15T09:09:33;4.00;;;1.43;;
10191;SDS011;17580;50.850;4.504;2022-11-15T09:12:02;3.13;;;2.03;;
10191;SDS011;17580;50.850;4.504;2022-11-15T09:14:29;2.00;;;1.43;;
10191;SDS011;17580;50.850;4.504;2022-11-15T09:16:56;3.97;;;1.70;;
10191;SDS011;17580;50.850;4.504;2022-11-15T09:19:24;3.83;;;1.40;;
10191;SDS011;17580;50.850;4.504;2022-11-15T09:21:51;3.63;;;2.10;;
10191;SDS011;17580;50.850;4.504;2022-11-15T09:24:18;3.03;;;1.70;;
10191;SDS011;17580;50.850;4.504;2022-11-15T09:26:45;1.67;;;1.40;;
10191;SDS011;17580;50.850;4.504;2022-11-15T09:29:14;2.67;;;1.50;;
10191;SDS011;17580;50.850;4.504;2022-11-15T09:31:41;2.80;;;1.40;;
10191;SDS011;17580;50.850;4.504;2022-11-15T09:34:08;3.33;;;1.50;;
10191;SDS011;17580;50.850;4.504;2022-11-15T09:36:35;4.00;;;1.60;;
10191;SDS011;17580;50.850;4.504;2022-11-15T09:39:02;3.43;;;1.80;;
10191;SDS011;17580;50.850;4.504;2022-11-15T09:41:39;1.60;;;1.50;;
10191;SDS011;17580;50.850;4.504;2022-11-15T09:44:27;2.80;;;1.63;;
10191;SDS011;17580;50.850;4.504;2022-11-15T09:47:10;3.07;;;1.30;;
10191;SDS011;17580;50.850;4.504;2022-11-15T09:50:00;3.60;;;1.40;;
10191;SDS011;17580;50.850;4.504;2022-11-15T09:52:36;6.77;;;1.83;;
10191;SDS011;17580;50.850;4.504;2022-11-15T09:55:07;2.27;;;1.60;;
10191;SDS011;17580;50.850;4.504;2022-11-15T09:57:38;3.50;;;1.80;;
10191;SDS011;17580;50.850;4.504;2022-11-15T10:00:20;2.30;;;1.37;;
10191;SDS011;17580;50.850;4.504;2022-11-15T10:02:56;1.30;;;1.20;;
10191;SDS011;17580;50.850;4.504;2022-11-15T10:05:30;4.13;;;1.53;;
10191;SDS011;17580;50.850;4.504;2022-11-15T10:08:03;3.53;;;1.60;;
10191;SDS011;17580;50.850;4.504;2022-11-15T10:10:40;2.90;;;1.77;;
10191;SDS011;17580;50.850;4.504;2022-11-15T10:13:12;4.30;;;1.60;;
10191;SDS011;17580;50.850;4.504;2022-11-15T10:15:44;3.37;;;1.57;;
10191;SDS011;17580;50.850;4.504;2022-11-15T10:18:14;3.90;;;1.93;;
10191;SDS011;17580;50.850;4.504;2022-11-15T10:20:46;4.37;;;2.10;;
10191;SDS011;17580;50.850;4.504;2022-11-15T10:23:16;7.27;;;1.83;;
10191;SDS011;17580;50.850;4.504;2022-11-15T10:25:45;5.80;;;1.80;;
10191;SDS011;17580;50.850;4.504;2022-11-15T10:28:15;5.17;;;1.60;;
10191;SDS011;17580;50.850;4.504;2022-11-15T10:30:46;3.60;;;1.60;;
10191;SDS011;17580;50.850;4.504;2022-11-15T10:33:26;2.87;;;1.60;;
10191;SDS011;17580;50.850;4.504;2022-11-15T10:36:19;2.87;;;1.90;;
10191;SDS011;17580;50.850;4.504;2022-11-15T10:38:55;3.00;;;1.53;;
10191;SDS011;17580;50.850;4.504;2022-11-15T10:41:35;3.10;;;1.73;;
10191;SDS011;17580;50.850;4.504;2022-11-15T10:47:20;3.23;;;1.63;;
10191;SDS011;17580;50.850;4.504;2022-11-15T10:49:53;2.77;;;1.53;;
10191;SDS011;17580;50.850;4.504;2022-11-15T10:52:25;4.70;;;1.70;;
10191;SDS011;17580;50.850;4.504;2022-11-15T10:54:53;4.10;;;1.57;;
10191;SDS011;17580;50.850;4.504;2022-11-15T10:57:24;2.87;;;1.40;;
10191;SDS011;17580;50.850;4.504;2022-11-15T10:59:54;3.17;;;1.80;;
10191;SDS011;17580;50.850;4.504;2022-11-15T11:02:28;3.53;;;1.20;;
10191;SDS011;17580;50.850;4.504;2022-11-15T11:04:58;4.63;;;1.93;;
10191;SDS011;17580;50.850;4.504;2022-11-15T11:07:26;3.07;;;1.50;;
10191;SDS011;17580;50.850;4.504;2022-11-15T11:09:59;4.50;;;1.70;;
10191;SDS011;17580;50.850;4.504;2022-11-15T11:12:28;3.63;;;1.40;;
10191;SDS011;17580;50.850;4.504;2022-11-15T11:14:57;2.00;;;1.20;;
10191;SDS011;17580;50.850;4.504;2022-11-15T11:17:30;6.37;;;1.77;;
10191;SDS011;17580;50.850;4.504;2022-11-15T11:20:10;2.83;;;1.40;;
10191;SDS011;17580;50.850;4.504;2022-11-15T11:22:47;4.63;;;1.73;;
10191;SDS011;17580;50.850;4.504;2022-11-15T11:25:26;1.83;;;1.27;;
10191;SDS011;17580;50.850;4.504;2022-11-15T11:30:58;2.83;;;1.20;;
10191;SDS011;17580;50.850;4.504;2022-11-15T11:33:41;3.70;;;1.57;;
10191;SDS011;17580;50.850;4.504;2022-11-15T11:36:17;4.20;;;1.37;;
10191;SDS011;17580;50.850;4.504;2022-11-15T11:38:51;3.53;;;1.70;;
10191;SDS011;17580;50.850;4.504;2022-11-15T11:41:29;3.97;;;1.50;;
10191;SDS011;17580;50.850;4.504;2022-11-15T11:44:15;4.03;;;1.67;;
10191;SDS011;17580;50.850;4.504;2022-11-15T11:46:53;3.83;;;1.60;;
10191;SDS011;17580;50.850;4.504;2022-11-15T11:49:25;5.97;;;1.57;;
10191;SDS011;17580;50.850;4.504;2022-11-15T11:52:00;3.30;;;1.70;;
10191;SDS011;17580;50.850;4.504;2022-11-15T11:54:31;2.30;;;1.70;;
10191;SDS011;17580;50.850;4.504;2022-11-15T11:57:05;4.87;;;1.73;;
10191;SDS011;17580;50.850;4.504;2022-11-15T11:59:41;3.23;;;1.77;;
10191;SDS011;17580;50.850;4.504;2022-11-15T12:02:14;1.97;;;1.20;;
10191;SDS011;17580;50.850;4.504;2022-11-15T12:04:47;4.50;;;1.10;;
10191;SDS011;17580;50.850;4.504;2022-11-15T12:07:17;8.33;;;1.50;;
10191;SDS011;17580;50.850;4.504;2022-11-15T12:09:49;5.43;;;1.77;;
10191;SDS011;17580;50.850;4.504;2022-11-15T12:12:23;1.83;;;1.30;;
10191;SDS011;17580;50.850;4.504;2022-11-15T12:14:57;3.07;;;1.43;;
10191;SDS011;17580;50.850;4.504;2022-11-15T12:17:29;3.13;;;1.20;;
10191;SDS011;17580;50.850;4.504;2022-11-15T12:19:59;2.57;;;1.50;;
10191;SDS011;17580;50.850;4.504;2022-11-15T12:22:33;4.07;;;1.63;;
10191;SDS011;17580;50.850;4.504;2022-11-15T12:25:07;4.57;;;1.40;;
10191;SDS011;17580;50.850;4.504;2022-11-15T12:27:41;3.43;;;1.60;;
10191;SDS011;17580;50.850;4.504;2022-11-15T12:30:13;3.33;;;1.40;;
10191;SDS011;17580;50.850;4.504;2022-11-15T12:32:49;3.53;;;1.40;;
10191;SDS011;17580;50.850;4.504;2022-11-15T12:35:23;3.90;;;1.47;;
10191;SDS011;17580;50.850;4.504;2022-11-15T12:37:53;1.33;;;1.20;;
10191;SDS011;17580;50.850;4.504;2022-11-15T12:40:25;1.67;;;1.37;;
10191;SDS011;17580;50.850;4.504;2022-11-15T12:42:58;1.50;;;1.13;;
10191;SDS011;17580;50.850;4.504;2022-11-15T12:45:40;1.83;;;1.20;;
10191;SDS011;17580;50.850;4.504;2022-11-15T12:57:48;3.33;;;1.40;;
10191;SDS011;17580;50.850;4.504;2022-11-15T13:03:19;1.57;;;1.37;;
10191;SDS011;17580;50.850;4.504;2022-11-15T13:06:03;4.87;;;1.43;;
10191;SDS011;17580;50.850;4.504;2022-11-15T13:08:40;5.50;;;1.70;;
10191;SDS011;17580;50.850;4.504;2022-11-15T13:17:27;1.10;;;1.10;;
10191;SDS011;17580;50.850;4.504;2022-11-15T13:20:17;3.90;;;1.80;;
10191;SDS011;17580;50.850;4.504;2022-11-15T13:22:47;2.07;;;1.40;;
10191;SDS011;17580;50.850;4.504;2022-11-15T13:25:26;1.97;;;1.50;;
10191;SDS011;17580;50.850;4.504;2022-11-15T13:28:20;4.80;;;1.10;;
10191;SDS011;17580;50.850;4.504;2022-11-15T13:30:49;2.30;;;1.47;;
10191;SDS011;17580;50.850;4.504;2022-11-15T13:33:20;2.60;;;1.50;;
10191;SDS011;17580;50.850;4.504;2022-11-15T13:35:50;2.73;;;1.20;;
10191;SDS011;17580;50.850;4.504;2022-11-15T13:38:25;2.77;;;1.40;;
10191;SDS011;17580;50.850;4.504;2022-11-15T13:40:53;1.77;;;1.57;;
10191;SDS011;17580;50.850;4.504;2022-11-15T13:43:27;3.60;;;1.53;;
10191;SDS011;17580;50.850;4.504;2022-11-15T13:46:04;2.50;;;1.23;;
10191;SDS011;17580;50.850;4.504;2022-11-15T13:48:32;1.27;;;1.20;;
10191;SDS011;17580;50.850;4.504;2022-11-15T13:50:59;1.50;;;1.40;;
10191;SDS011;17580;50.850;4.504;2022-11-15T13:53:28;1.70;;;1.23;;
10191;SDS011;17580;50.850;4.504;2022-11-15T13:55:57;1.60;;;1.50;;
10191;SDS011;17580;50.850;4.504;2022-11-15T13:58:26;2.40;;;1.53;;
10191;SDS011;17580;50.850;4.504;2022-11-15T14:00:58;1.33;;;1.20;;
10191;SDS011;17580;50.850;4.504;2022-11-15T14:03:27;2.10;;;1.63;;
10191;SDS011;17580;50.850;4.504;2022-11-15T14:06:02;1.20;;;1.20;;
10191;SDS011;17580;50.850;4.504;2022-11-15T14:08:32;2.20;;;1.20;;
10191;SDS011;17580;50.850;4.504;2022-11-15T14:11:07;1.93;;;1.27;;
10191;SDS011;17580;50.850;4.504;2022-11-15T14:13:38;2.90;;;1.40;;
10191;SDS011;17580;50.850;4.504;2022-11-15T14:16:14;2.63;;;1.20;;
10191;SDS011;17580;50.850;4.504;2022-11-15T14:18:44;1.20;;;1.20;;
10191;SDS011;17580;50.850;4.504;2022-11-15T14:21:12;1.63;;;1.43;;
10191;SDS011;17580;50.850;4.504;2022-11-15T14:23:39;2.60;;;1.10;;
10191;SDS011;17580;50.850;4.504;2022-11-15T14:26:10;1.50;;;1.40;;
10191;SDS011;17580;50.850;4.504;2022-11-15T14:28:53;1.60;;;1.40;;
10191;SDS011;17580;50.850;4.504;2022-11-15T14:31:20;1.60;;;1.50;;
10191;SDS011;17580;50.850;4.504;2022-11-15T14:33:48;1.53;;;1.43;;
10191;SDS011;17580;50.850;4.504;2022-11-15T14:36:15;1.77;;;1.60;;
10191;SDS011;17580;50.850;4.504;2022-11-15T14:38:43;1.70;;;1.30;;
10191;SDS011;17580;50.850;4.504;2022-11-15T14:41:16;1.57;;;1.47;;
10191;SDS011;17580;50.850;4.504;2022-11-15T14:43:45;1.60;;;1.50;;
10191;SDS011;17580;50.850;4.504;2022-11-15T14:46:14;3.13;;;1.50;;
10191;SDS011;17580;50.850;4.504;2022-11-15T14:48:41;1.97;;;1.87;;
10191;SDS011;17580;50.850;4.504;2022-11-15T14:51:11;3.43;;;2.00;;
10191;SDS011;17580;50.850;4.504;2022-11-15T14:53:39;2.20;;;1.70;;
10191;SDS011;17580;50.850;4.504;2022-11-15T14:56:07;1.93;;;1.57;;
10191;SDS011;17580;50.850;4.504;2022-11-15T14:58:34;1.80;;;1.70;;
10191;SDS011;17580;50.850;4.504;2022-11-15T15:01:01;1.80;;;1.70;;
10191;SDS011;17580;50.850;4.504;2022-11-15T15:03:37;2.17;;;1.97;;
10191;SDS011;17580;50.850;4.504;2022-11-15T15:06:04;1.80;;;1.70;;
10191;SDS011;17580;50.850;4.504;2022-11-15T15:08:31;1.77;;;1.67;;
10191;SDS011;17580;50.850;4.504;2022-11-15T15:10:58;2.57;;;2.00;;
10191;SDS011;17580;50.850;4.504;2022-11-15T15:13:25;1.90;;;1.77;;
10191;SDS011;17580;50.850;4.504;2022-11-15T15:15:53;1.50;;;1.50;;
10191;SDS011;17580;50.850;4.504;2022-11-15T15:18:20;4.90;;;1.90;;
10191;SDS011;17580;50.850;4.504;2022-11-15T15:20:50;1.67;;;1.57;;
10191;SDS011;17580;50.850;4.504;2022-11-15T15:23:21;1.60;;;1.50;;
10191;SDS011;17580;50.850;4.504;2022-11-15T15:25:50;1.60;;;1.60;;
10191;SDS011;17580;50.850;4.504;2022-11-15T15:28:18;1.60;;;1.50;;
10191;SDS011;17580;50.850;4.504;2022-11-15T15:30:45;2.10;;;1.93;;